createdAt,value
2022-09-13T00:00:30.952Z,84.92
2022-09-13T00:01:26.858Z,84.74
2022-09-13T00:02:22.032Z,84.72
2022-09-13T00:03:17.167Z,84.57
2022-09-13T00:04:12.939Z,84.32
2022-09-13T00:05:08.128Z,84.21
2022-09-13T00:06:03.380Z,84.07
2022-09-13T00:06:58.619Z,84.11
2022-09-13T00:07:53.790Z,84.07
2022-09-13T00:08:48.868Z,83.91
2022-09-13T00:09:43.897Z,83.83
2022-09-13T00:10:38.936Z,84.08
2022-09-13T00:11:33.966Z,84.11
2022-09-13T00:12:28.975Z,84.07
2022-09-13T00:13:23.984Z,84.22
2022-09-13T00:14:19.048Z,84.15
2022-09-13T00:15:14.044Z,84.15
2022-09-13T00:16:09.104Z,84.28
2022-09-13T00:17:04.134Z,84.39
2022-09-13T00:17:59.165Z,84.43
2022-09-13T00:18:54.196Z,84.36
2022-09-13T00:19:49.213Z,84.24
2022-09-13T00:20:44.205Z,84.38
2022-09-13T00:21:39.235Z,84.26
2022-09-13T00:22:34.233Z,84.08
2022-09-13T00:23:29.273Z,83.95
2022-09-13T00:24:24.303Z,84.22
2022-09-13T00:25:19.322Z,84.30
2022-09-13T00:26:14.461Z,84.55
2022-09-13T00:27:09.529Z,84.98
2022-09-13T00:28:04.512Z,84.93
2022-09-13T00:29:01.183Z,85.08
2022-09-13T00:29:56.489Z,84.97
2022-09-13T00:30:52.469Z,85.03
2022-09-13T00:31:47.684Z,85.13
2022-09-13T00:32:42.809Z,85.05
2022-09-13T00:33:38.665Z,85.01
2022-09-13T00:34:33.945Z,85.13
2022-09-13T00:35:29.920Z,85.39
2022-09-13T00:36:25.076Z,85.55
2022-09-13T00:37:20.366Z,85.79
2022-09-13T00:38:16.236Z,85.80
2022-09-13T00:39:11.593Z,85.58
2022-09-13T00:40:06.895Z,85.62
2022-09-13T00:41:03.185Z,85.69
2022-09-13T00:41:58.331Z,85.62
2022-09-13T00:42:54.186Z,85.60
2022-09-13T00:43:49.612Z,85.21
2022-09-13T00:44:44.935Z,85.08
2022-09-13T00:45:40.724Z,85.04
2022-09-13T00:46:35.934Z,84.94
2022-09-13T00:47:31.642Z,85.22
2022-09-13T00:48:26.924Z,85.44
2022-09-13T00:49:22.355Z,85.74
2022-09-13T00:50:18.093Z,85.65
2022-09-13T00:51:13.685Z,85.50
2022-09-13T00:52:08.567Z,85.52
2022-09-13T00:53:05.216Z,85.47
2022-09-13T00:54:00.532Z,85.54
2022-09-13T00:54:56.388Z,85.50
2022-09-13T00:55:51.660Z,85.65
2022-09-13T00:56:46.865Z,85.78
2022-09-13T00:57:42.699Z,85.90
2022-09-13T00:58:37.999Z,86.10
2022-09-13T00:59:33.832Z,86.34
2022-09-13T01:00:29.098Z,86.37
2022-09-13T01:01:24.367Z,86.47
2022-09-13T01:02:20.117Z,86.56
2022-09-13T01:03:15.288Z,86.55
2022-09-13T01:04:12.719Z,86.43
2022-09-13T01:05:06.839Z,86.40
2022-09-13T01:06:01.986Z,86.26
2022-09-13T01:06:57.826Z,86.26
2022-09-13T01:07:52.975Z,86.32
2022-09-13T01:08:48.131Z,86.57
2022-09-13T01:09:44.019Z,86.60
2022-09-13T01:10:39.307Z,86.76
2022-09-13T01:11:35.292Z,87.18
2022-09-13T01:12:30.327Z,86.83
2022-09-13T01:13:25.744Z,86.61
2022-09-13T01:14:21.634Z,86.32
2022-09-13T01:15:16.784Z,86.15
2022-09-13T01:16:12.234Z,86.12
2022-09-13T01:17:08.232Z,85.59
2022-09-13T01:18:03.526Z,85.44
2022-09-13T01:18:59.381Z,85.52
2022-09-13T01:19:54.676Z,85.67
2022-09-13T01:20:49.961Z,85.66
2022-09-13T01:21:45.706Z,85.50
2022-09-13T01:22:40.996Z,85.54
2022-09-13T01:23:36.919Z,85.49
2022-09-13T01:24:32.040Z,85.60
2022-09-13T01:25:27.340Z,85.71
2022-09-13T01:26:23.062Z,85.79
2022-09-13T01:27:18.347Z,85.92
2022-09-13T01:28:13.509Z,86.08
2022-09-13T01:29:10.018Z,86.44
2022-09-13T01:30:05.147Z,86.93
2022-09-13T01:31:04.600Z,87.03
2022-09-13T01:31:59.794Z,86.91
2022-09-13T01:32:55.112Z,86.57
2022-09-13T01:33:50.982Z,86.09
2022-09-13T01:34:46.297Z,85.67
2022-09-13T01:35:41.567Z,85.41
2022-09-13T01:36:37.964Z,85.25
2022-09-13T01:37:33.255Z,85.16
2022-09-13T01:38:29.128Z,85.22
2022-09-13T01:39:24.274Z,85.21
2022-09-13T01:40:19.723Z,85.32
2022-09-13T01:41:15.337Z,85.28
2022-09-13T01:42:10.636Z,85.22
2022-09-13T01:43:06.483Z,85.17
2022-09-13T01:44:01.747Z,85.02
2022-09-13T01:44:57.195Z,85.07
2022-09-13T01:45:52.840Z,85.18
2022-09-13T01:46:47.958Z,85.29
2022-09-13T01:47:43.122Z,85.47
2022-09-13T01:48:38.373Z,85.50
2022-09-13T01:49:33.724Z,85.76
2022-09-13T01:50:28.693Z,85.91
2022-09-13T01:51:24.071Z,86.20
2022-09-13T01:52:19.863Z,86.62
2022-09-13T01:53:15.148Z,87.04
2022-09-13T01:54:10.435Z,87.24
2022-09-13T01:55:06.329Z,87.28
2022-09-13T01:56:01.470Z,87.17
2022-09-13T01:56:56.759Z,87.15
2022-09-13T01:57:51.908Z,87.02
2022-09-13T01:58:47.067Z,87.02
2022-09-13T01:59:42.167Z,86.90
2022-09-13T02:00:37.097Z,86.91
2022-09-13T02:01:32.154Z,86.80
2022-09-13T02:02:27.157Z,86.87
2022-09-13T02:03:22.165Z,86.64
2022-09-13T02:04:17.205Z,86.61
2022-09-13T02:05:12.269Z,86.58
2022-09-13T02:06:07.286Z,86.56
2022-09-13T02:07:02.284Z,86.48
2022-09-13T02:07:57.338Z,86.46
2022-09-13T02:08:52.467Z,86.50
2022-09-13T02:09:47.543Z,86.60
2022-09-13T02:10:45.805Z,86.56
2022-09-13T02:11:40.793Z,86.64
2022-09-13T02:12:35.786Z,86.62
2022-09-13T02:13:30.808Z,86.60
2022-09-13T02:14:25.811Z,86.65
2022-09-13T02:15:20.851Z,86.70
2022-09-13T02:16:15.893Z,86.66
2022-09-13T02:17:10.890Z,86.75
2022-09-13T02:18:05.923Z,86.84
2022-09-13T02:19:01.062Z,86.92
2022-09-13T02:19:56.080Z,86.75
2022-09-13T02:20:51.122Z,86.76
2022-09-13T02:21:46.112Z,86.82
2022-09-13T02:22:41.123Z,86.70
2022-09-13T02:23:36.253Z,86.47
2022-09-13T02:24:31.544Z,86.31
2022-09-13T02:25:26.678Z,86.03
2022-09-13T02:26:21.721Z,85.96
2022-09-13T02:27:19.847Z,86.06
2022-09-13T02:28:14.851Z,86.07
2022-09-13T02:29:09.978Z,85.97
2022-09-13T02:30:05.007Z,85.70
2022-09-13T02:31:00.171Z,85.52
2022-09-13T02:31:55.360Z,85.37
2022-09-13T02:32:50.389Z,85.06
2022-09-13T02:33:45.489Z,84.95
2022-09-13T02:34:40.437Z,85.10
2022-09-13T02:35:35.475Z,85.35
2022-09-13T02:36:33.194Z,85.33
2022-09-13T02:37:28.364Z,85.20
2022-09-13T02:38:23.518Z,85.29
2022-09-13T02:39:18.604Z,85.52
2022-09-13T02:40:13.688Z,85.79
2022-09-13T02:41:08.764Z,86.02
2022-09-13T02:42:03.805Z,86.15
2022-09-13T02:42:58.848Z,86.27
2022-09-13T02:43:54.019Z,86.43
2022-09-13T02:44:49.036Z,86.68
2022-09-13T02:45:44.163Z,86.84
2022-09-13T02:46:39.171Z,86.75
2022-09-13T02:47:34.221Z,86.85
2022-09-13T02:48:29.247Z,87.05
2022-09-13T02:49:24.414Z,87.07
2022-09-13T02:50:20.270Z,86.93
2022-09-13T02:51:15.572Z,86.78
2022-09-13T02:52:11.568Z,86.75
2022-09-13T02:53:06.589Z,87.02
2022-09-13T02:54:02.043Z,87.04
2022-09-13T02:54:57.789Z,86.97
2022-09-13T02:55:53.085Z,86.94
2022-09-13T02:56:48.488Z,86.87
2022-09-13T02:57:44.618Z,86.83
2022-09-13T02:58:39.907Z,86.96
2022-09-13T02:59:35.786Z,87.03
2022-09-13T03:00:30.917Z,87.21
2022-09-13T03:01:26.398Z,87.28
2022-09-13T03:02:22.015Z,87.22
2022-09-13T03:03:17.202Z,87.32
2022-09-13T03:04:13.086Z,87.12
2022-09-13T03:05:08.219Z,86.87
2022-09-13T03:06:03.635Z,86.79
2022-09-13T03:06:59.364Z,86.59
2022-09-13T03:07:54.663Z,86.66
2022-09-13T03:08:49.827Z,86.64
2022-09-13T03:09:46.353Z,86.70
2022-09-13T03:10:41.542Z,86.66
2022-09-13T03:11:37.386Z,86.85
2022-09-13T03:12:32.660Z,86.87
2022-09-13T03:13:27.832Z,86.70
2022-09-13T03:14:23.703Z,86.55
2022-09-13T03:15:18.889Z,86.42
2022-09-13T03:16:14.751Z,86.40
2022-09-13T03:17:09.892Z,86.63
2022-09-13T03:18:05.211Z,86.75
2022-09-13T03:19:01.088Z,86.85
2022-09-13T03:19:56.270Z,87.00
2022-09-13T03:20:51.534Z,87.08
2022-09-13T03:21:47.941Z,87.01
2022-09-13T03:22:43.229Z,87.07
2022-09-13T03:23:39.110Z,87.32
2022-09-13T03:24:34.276Z,87.43
2022-09-13T03:25:29.439Z,87.59
2022-09-13T03:26:25.176Z,87.50
2022-09-13T03:27:20.481Z,87.28
2022-09-13T03:28:16.462Z,87.09
2022-09-13T03:29:11.662Z,87.18
2022-09-13T03:30:06.959Z,87.07
2022-09-13T03:31:02.749Z,87.05
2022-09-13T03:31:57.988Z,86.99
2022-09-13T03:32:53.277Z,86.82
2022-09-13T03:33:49.425Z,86.88
2022-09-13T03:34:44.603Z,86.71
2022-09-13T03:35:40.477Z,86.55
2022-09-13T03:36:35.734Z,86.48
2022-09-13T03:37:31.138Z,86.41
2022-09-13T03:38:26.207Z,86.33
2022-09-13T03:39:21.753Z,86.03
2022-09-13T03:40:17.800Z,86.26
2022-09-13T03:41:12.949Z,86.40
2022-09-13T03:42:08.798Z,86.82
2022-09-13T03:43:04.042Z,86.98
2022-09-13T03:43:59.354Z,86.85
2022-09-13T03:44:54.961Z,86.85
2022-09-13T03:45:50.315Z,87.00
2022-09-13T03:46:46.040Z,86.97
2022-09-13T03:47:41.326Z,87.00
2022-09-13T03:48:36.837Z,87.04
2022-09-13T03:49:32.579Z,86.96
2022-09-13T03:50:27.869Z,86.66
2022-09-13T03:51:23.039Z,86.54
2022-09-13T03:52:19.548Z,86.61
2022-09-13T03:53:14.751Z,86.62
2022-09-13T03:54:10.036Z,86.42
2022-09-13T03:55:05.181Z,86.42
2022-09-13T03:56:02.787Z,86.20
2022-09-13T03:56:58.069Z,86.39
2022-09-13T03:57:53.067Z,86.68
2022-09-13T03:58:48.234Z,86.73
2022-09-13T03:59:43.161Z,86.65
2022-09-13T04:00:38.227Z,86.65
2022-09-13T04:01:33.309Z,86.86
2022-09-13T04:02:28.349Z,87.02
2022-09-13T04:03:23.384Z,87.08
2022-09-13T04:04:18.404Z,87.13
2022-09-13T04:05:13.554Z,87.25
2022-09-13T04:06:08.466Z,87.17
2022-09-13T04:07:03.475Z,87.22
2022-09-13T04:07:58.512Z,87.30
2022-09-13T04:08:53.530Z,87.42
2022-09-13T04:09:48.554Z,87.50
2022-09-13T04:10:43.723Z,87.50
2022-09-13T04:11:38.763Z,87.50
2022-09-13T04:12:33.801Z,87.42
2022-09-13T04:13:28.825Z,87.40
2022-09-13T04:14:23.960Z,87.22
2022-09-13T04:15:19.034Z,87.27
2022-09-13T04:16:14.095Z,87.25
2022-09-13T04:17:09.102Z,87.43
2022-09-13T04:18:04.150Z,87.47
2022-09-13T04:18:59.469Z,87.32
2022-09-13T04:19:54.209Z,87.20
2022-09-13T04:20:49.217Z,87.12
2022-09-13T04:21:44.308Z,86.92
2022-09-13T04:22:39.368Z,86.92
2022-09-13T04:23:34.369Z,87.02
2022-09-13T04:24:29.371Z,87.02
2022-09-13T04:25:26.835Z,87.02
2022-09-13T04:26:22.104Z,86.98
2022-09-13T04:27:17.381Z,87.02
2022-09-13T04:28:12.544Z,86.94
2022-09-13T04:29:07.992Z,86.97
2022-09-13T04:30:03.395Z,87.11
2022-09-13T04:30:58.555Z,87.04
2022-09-13T04:31:53.893Z,86.99
2022-09-13T04:32:48.983Z,87.09
2022-09-13T04:33:44.963Z,87.08
2022-09-13T04:34:40.395Z,87.01
2022-09-13T04:35:36.161Z,86.94
2022-09-13T04:36:31.484Z,86.90
2022-09-13T04:37:26.853Z,86.91
2022-09-13T04:38:22.505Z,86.90
2022-09-13T04:39:17.851Z,86.89
2022-09-13T04:40:13.216Z,86.97
2022-09-13T04:41:09.426Z,87.05
2022-09-13T04:42:04.729Z,87.01
2022-09-13T04:43:00.484Z,87.05
2022-09-13T04:43:55.691Z,87.01
2022-09-13T04:44:50.927Z,86.88
2022-09-13T04:45:46.774Z,86.95
2022-09-13T04:46:42.005Z,86.87
2022-09-13T04:47:37.782Z,86.64
2022-09-13T04:48:32.973Z,86.64
2022-09-13T04:49:28.359Z,86.79
2022-09-13T04:50:24.168Z,86.49
2022-09-13T04:51:19.507Z,86.18
2022-09-13T04:52:14.765Z,86.43
2022-09-13T04:53:11.281Z,86.10
2022-09-13T04:54:06.557Z,85.83
2022-09-13T04:55:02.405Z,85.68
2022-09-13T04:55:57.733Z,85.64
2022-09-13T04:56:53.056Z,85.87
2022-09-13T04:57:48.826Z,86.05
2022-09-13T04:58:44.134Z,86.18
2022-09-13T04:59:40.004Z,86.33
2022-09-13T05:00:35.235Z,86.60
2022-09-13T05:01:30.614Z,86.68
2022-09-13T05:02:26.348Z,86.68
2022-09-13T05:03:21.694Z,86.69
2022-09-13T05:04:17.145Z,87.09
2022-09-13T05:05:13.323Z,87.25
2022-09-13T05:06:08.682Z,87.16
2022-09-13T05:07:04.462Z,87.00
2022-09-13T05:07:59.756Z,87.08
2022-09-13T05:08:55.394Z,86.85
2022-09-13T05:09:51.022Z,86.68
2022-09-13T05:10:46.360Z,86.44
2022-09-13T05:11:42.124Z,86.38
2022-09-13T05:12:37.443Z,86.44
2022-09-13T05:13:32.900Z,86.51
2022-09-13T05:14:28.531Z,86.57
2022-09-13T05:15:23.846Z,86.58
2022-09-13T05:16:19.242Z,86.43
2022-09-13T05:17:15.536Z,86.32
2022-09-13T05:18:10.907Z,86.37
2022-09-13T05:19:06.648Z,86.32
2022-09-13T05:20:01.957Z,86.28
2022-09-13T05:20:57.291Z,86.28
2022-09-13T05:21:53.048Z,86.29
2022-09-13T05:22:48.398Z,86.04
2022-09-13T05:23:44.153Z,85.88
2022-09-13T05:24:39.486Z,85.92
2022-09-13T05:25:34.847Z,85.92
2022-09-13T05:26:30.632Z,86.01
2022-09-13T05:27:26.014Z,86.01
2022-09-13T05:28:21.375Z,85.98
2022-09-13T05:29:17.762Z,85.96
2022-09-13T05:30:13.150Z,86.05
2022-09-13T05:31:08.970Z,86.26
2022-09-13T05:32:04.344Z,86.38
2022-09-13T05:32:59.715Z,86.55
2022-09-13T05:33:55.084Z,86.52
2022-09-13T05:34:50.118Z,86.16
2022-09-13T05:35:45.161Z,86.17
2022-09-13T05:36:40.255Z,85.89
2022-09-13T05:37:35.290Z,86.31
2022-09-13T05:38:30.399Z,85.86
2022-09-13T05:39:34.113Z,86.11
2022-09-13T05:40:21.642Z,86.18
2022-09-13T05:41:15.630Z,86.19
2022-09-13T05:42:10.735Z,86.08
2022-09-13T05:43:05.818Z,86.24
2022-09-13T05:44:10.341Z,85.78
2022-09-13T05:45:00.465Z,85.59
2022-09-13T05:45:54.522Z,85.50
2022-09-13T05:46:49.544Z,85.57
2022-09-13T05:47:44.677Z,85.53
2022-09-13T05:48:39.929Z,85.50
2022-09-13T05:49:39.033Z,85.83
2022-09-13T05:50:56.746Z,85.67
2022-09-13T05:51:26.317Z,85.99
2022-09-13T05:52:20.233Z,85.87
2022-09-13T05:53:15.620Z,85.74
2022-09-13T05:54:11.015Z,85.92
2022-09-13T05:55:06.404Z,85.71
2022-09-13T05:56:02.216Z,85.51
2022-09-13T05:56:57.691Z,85.20
2022-09-13T05:57:53.042Z,85.29
2022-09-13T05:58:48.524Z,84.88
2022-09-13T05:59:43.512Z,84.80
2022-09-13T06:00:38.644Z,84.94
2022-09-13T06:01:33.750Z,84.71
2022-09-13T06:02:33.076Z,84.53
2022-09-13T06:03:28.473Z,84.57
2022-09-13T06:04:23.863Z,84.46
2022-09-13T06:05:19.639Z,83.98
2022-09-13T06:06:15.067Z,84.21
2022-09-13T06:07:10.440Z,84.44
2022-09-13T06:08:07.060Z,85.05
2022-09-13T06:09:02.427Z,84.89
2022-09-13T06:09:58.209Z,84.78
2022-09-13T06:10:53.570Z,84.25
2022-09-13T06:11:48.948Z,83.98
2022-09-13T06:12:44.748Z,83.87
2022-09-13T06:13:40.128Z,83.93
2022-09-13T06:14:36.037Z,83.45
2022-09-13T06:15:31.333Z,83.04
2022-09-13T06:16:26.746Z,82.92
2022-09-13T06:17:22.526Z,82.75
2022-09-13T06:18:17.920Z,82.10
2022-09-13T06:19:13.389Z,81.74
2022-09-13T06:20:09.624Z,81.72
2022-09-13T06:21:05.025Z,81.72
2022-09-13T06:22:00.715Z,81.10
2022-09-13T06:22:56.055Z,81.08
2022-09-13T06:23:51.583Z,80.98
2022-09-13T06:24:47.257Z,80.93
2022-09-13T06:25:42.630Z,80.64
2022-09-13T06:26:38.484Z,80.75
2022-09-13T06:27:33.877Z,80.39
2022-09-13T06:28:29.393Z,80.32
2022-09-13T06:29:25.083Z,80.18
2022-09-13T06:30:20.426Z,80.48
2022-09-13T06:31:15.904Z,80.34
2022-09-13T06:32:12.121Z,80.27
2022-09-13T06:33:07.540Z,80.62
2022-09-13T06:34:03.223Z,80.62
2022-09-13T06:34:58.580Z,80.90
2022-09-13T06:35:53.984Z,80.77
2022-09-13T06:36:49.792Z,80.69
2022-09-13T06:37:45.170Z,80.69
2022-09-13T06:38:40.959Z,80.53
2022-09-13T06:39:36.291Z,80.19
2022-09-13T06:40:31.751Z,79.49
2022-09-13T06:41:27.470Z,79.70
2022-09-13T06:42:22.823Z,79.47
2022-09-13T06:43:18.202Z,79.35
2022-09-13T06:44:14.626Z,79.24
2022-09-13T06:45:09.987Z,78.94
2022-09-13T06:46:05.809Z,78.70
2022-09-13T06:47:01.205Z,78.74
2022-09-13T06:47:56.738Z,78.57
2022-09-13T06:48:52.508Z,78.60
2022-09-13T06:49:47.905Z,78.36
2022-09-13T06:50:43.289Z,78.28
2022-09-13T06:51:39.114Z,78.50
2022-09-13T06:52:34.533Z,78.34
2022-09-13T06:53:30.333Z,78.30
2022-09-13T06:54:25.671Z,78.47
2022-09-13T06:55:21.098Z,78.36
2022-09-13T06:56:16.822Z,77.93
2022-09-13T06:57:12.196Z,78.39
2022-09-13T06:58:07.684Z,78.17
2022-09-13T06:59:03.904Z,78.23
2022-09-13T06:59:59.252Z,77.75
2022-09-13T07:00:56.288Z,77.66
2022-09-13T07:01:50.536Z,77.58
2022-09-13T07:02:46.041Z,77.19
2022-09-13T07:03:41.296Z,76.78
2022-09-13T07:04:36.693Z,76.54
2022-09-13T07:05:31.710Z,76.08
2022-09-13T07:06:26.844Z,75.84
2022-09-13T07:07:21.920Z,75.55
2022-09-13T07:08:17.045Z,75.05
2022-09-13T07:09:12.141Z,74.88
2022-09-13T07:10:07.150Z,74.84
2022-09-13T07:11:02.268Z,74.62
2022-09-13T07:11:57.284Z,74.57
2022-09-13T07:12:54.387Z,73.75
2022-09-13T07:13:49.478Z,73.45
2022-09-13T07:14:44.459Z,72.90
2022-09-13T07:15:39.611Z,72.28
2022-09-13T07:16:34.627Z,72.77
2022-09-13T07:17:31.472Z,72.67
2022-09-13T07:18:24.655Z,72.68
2022-09-13T07:19:19.677Z,72.60
2022-09-13T07:20:14.699Z,72.43
2022-09-13T07:21:09.805Z,72.45
2022-09-13T07:22:04.805Z,71.79
2022-09-13T07:22:59.808Z,71.33
2022-09-13T07:23:54.948Z,71.57
2022-09-13T07:24:49.965Z,71.16
2022-09-13T07:25:45.632Z,71.38
2022-09-13T07:26:41.204Z,71.50
2022-09-13T07:27:36.504Z,70.95
2022-09-13T07:28:35.196Z,70.96
2022-09-13T07:29:27.861Z,70.38
2022-09-13T07:30:23.217Z,70.10
2022-09-13T07:31:19.121Z,69.66
2022-09-13T07:32:14.466Z,69.89
2022-09-13T07:33:10.168Z,70.26
2022-09-13T07:34:05.601Z,69.84
2022-09-13T07:35:01.104Z,69.16
2022-09-13T07:35:56.855Z,69.50
2022-09-13T07:36:52.334Z,68.82
2022-09-13T07:37:47.812Z,68.94
2022-09-13T07:38:44.453Z,69.29
2022-09-13T07:39:39.855Z,68.38
2022-09-13T07:40:35.591Z,67.14
2022-09-13T07:41:31.057Z,66.98
2022-09-13T07:42:26.556Z,66.74
2022-09-13T07:43:22.439Z,66.83
2022-09-13T07:44:18.071Z,66.27
2022-09-13T07:45:13.697Z,65.68
2022-09-13T07:46:09.271Z,65.91
2022-09-13T07:47:04.604Z,65.48
2022-09-13T07:48:00.625Z,64.37
2022-09-13T07:48:56.101Z,63.70
2022-09-13T07:49:51.547Z,64.09
2022-09-13T07:50:47.858Z,64.79
2022-09-13T07:51:43.319Z,65.45
2022-09-13T07:52:39.186Z,66.02
2022-09-13T07:53:34.665Z,66.51
2022-09-13T07:54:30.157Z,67.10
2022-09-13T07:55:25.921Z,67.29
2022-09-13T07:56:21.406Z,66.76
2022-09-13T07:57:17.322Z,66.84
2022-09-13T07:58:12.734Z,67.02
2022-09-13T07:59:08.124Z,67.54
2022-09-13T08:00:03.950Z,68.25
2022-09-13T08:00:59.594Z,68.65
2022-09-13T08:01:55.077Z,68.67
2022-09-13T08:02:51.458Z,68.85
2022-09-13T08:03:46.971Z,68.86
2022-09-13T08:04:42.804Z,68.93
2022-09-13T08:05:38.346Z,68.92
2022-09-13T08:06:33.865Z,68.58
2022-09-13T08:07:29.555Z,68.26
2022-09-13T08:08:25.072Z,67.60
2022-09-13T08:09:20.899Z,66.97
2022-09-13T08:10:16.285Z,66.60
2022-09-13T08:11:11.675Z,66.45
2022-09-13T08:12:07.373Z,65.41
2022-09-13T08:13:02.884Z,65.13
2022-09-13T08:13:58.416Z,64.82
2022-09-13T08:14:54.696Z,64.41
2022-09-13T08:15:50.222Z,64.08
2022-09-13T08:16:45.973Z,63.87
2022-09-13T08:17:41.508Z,63.76
2022-09-13T08:18:36.943Z,63.93
2022-09-13T08:19:32.629Z,63.49
2022-09-13T08:20:28.151Z,63.36
2022-09-13T08:21:23.959Z,63.86
2022-09-13T08:22:19.240Z,64.28
2022-09-13T08:23:14.646Z,64.03
2022-09-13T08:24:10.328Z,63.98
2022-09-13T08:25:05.720Z,64.55
2022-09-13T08:26:01.247Z,64.99
2022-09-13T08:26:57.498Z,65.11
2022-09-13T08:27:53.171Z,65.05
2022-09-13T08:28:48.415Z,64.76
2022-09-13T08:29:43.981Z,64.89
2022-09-13T08:30:39.713Z,64.57
2022-09-13T08:31:35.056Z,64.24
2022-09-13T08:32:30.856Z,64.32
2022-09-13T08:33:26.514Z,63.72
2022-09-13T08:34:21.901Z,63.38
2022-09-13T08:35:17.826Z,63.40
2022-09-13T08:36:13.387Z,63.20
2022-09-13T08:37:08.785Z,62.77
2022-09-13T08:38:05.131Z,62.56
2022-09-13T08:39:00.638Z,63.23
2022-09-13T08:39:56.460Z,63.56
2022-09-13T08:40:51.846Z,64.21
2022-09-13T08:41:47.517Z,64.05
2022-09-13T08:42:43.169Z,63.57
2022-09-13T08:43:38.775Z,63.23
2022-09-13T08:44:34.463Z,62.97
2022-09-13T08:45:29.881Z,62.61
2022-09-13T08:46:25.425Z,62.65
2022-09-13T08:47:20.869Z,62.35
2022-09-13T08:48:16.371Z,62.46
2022-09-13T08:49:15.972Z,62.73
2022-09-13T08:50:06.786Z,63.10
2022-09-13T08:51:01.911Z,63.01
2022-09-13T08:52:02.204Z,63.21
2022-09-13T08:52:57.611Z,62.88
2022-09-13T08:53:53.014Z,63.49
2022-09-13T08:54:48.530Z,63.55
2022-09-13T08:55:44.394Z,63.06
2022-09-13T08:56:39.781Z,63.17
2022-09-13T08:57:35.281Z,62.67
2022-09-13T08:58:30.974Z,62.23
2022-09-13T08:59:26.367Z,61.32
2022-09-13T09:00:22.200Z,61.08
2022-09-13T09:01:17.942Z,61.90
2022-09-13T09:02:13.330Z,62.32
2022-09-13T09:03:08.710Z,62.27
2022-09-13T09:04:05.185Z,62.35
2022-09-13T09:05:00.552Z,62.10
2022-09-13T09:05:56.239Z,62.11
2022-09-13T09:06:54.003Z,61.90
2022-09-13T09:07:47.169Z,61.88
2022-09-13T09:08:42.520Z,61.60
2022-09-13T09:09:38.327Z,61.05
2022-09-13T09:10:33.863Z,60.67
2022-09-13T09:11:29.699Z,60.56
2022-09-13T09:12:25.095Z,60.60
2022-09-13T09:13:24.270Z,60.69
2022-09-13T09:14:16.518Z,60.34
2022-09-13T09:15:12.046Z,59.90
2022-09-13T09:16:07.446Z,60.22
2022-09-13T09:17:03.362Z,60.12
2022-09-13T09:17:58.753Z,60.12
2022-09-13T09:18:54.263Z,60.40
2022-09-13T09:19:50.392Z,60.34
2022-09-13T09:20:45.898Z,60.06
2022-09-13T09:21:41.709Z,59.82
2022-09-13T09:22:37.252Z,59.83
2022-09-13T09:23:32.625Z,59.08
2022-09-13T09:24:28.448Z,58.47
2022-09-13T09:25:23.997Z,58.38
2022-09-13T09:26:19.806Z,58.40
2022-09-13T09:27:15.216Z,58.09
2022-09-13T09:28:10.606Z,58.02
2022-09-13T09:29:06.534Z,57.49
2022-09-13T09:30:01.926Z,57.38
2022-09-13T09:30:57.404Z,57.34
2022-09-13T09:31:53.750Z,57.26
2022-09-13T09:32:49.281Z,56.35
2022-09-13T09:33:45.076Z,56.85
2022-09-13T09:34:40.576Z,56.81
2022-09-13T09:35:36.110Z,56.53
2022-09-13T09:36:31.794Z,55.66
2022-09-13T09:37:27.319Z,55.72
2022-09-13T09:38:22.975Z,56.20
2022-09-13T09:39:18.493Z,56.33
2022-09-13T09:40:14.156Z,56.32
2022-09-13T09:41:09.913Z,56.63
2022-09-13T09:42:05.422Z,55.98
2022-09-13T09:43:00.943Z,55.56
2022-09-13T09:43:57.031Z,55.21
2022-09-13T09:44:52.662Z,55.58
2022-09-13T09:45:48.386Z,55.40
2022-09-13T09:46:43.956Z,55.69
2022-09-13T09:47:39.457Z,55.89
2022-09-13T09:48:35.165Z,55.31
2022-09-13T09:49:30.662Z,55.06
2022-09-13T09:50:26.453Z,54.33
2022-09-13T09:51:21.863Z,52.99
2022-09-13T09:52:17.271Z,52.79
2022-09-13T09:53:13.172Z,52.65
2022-09-13T09:54:08.583Z,51.71
2022-09-13T09:55:03.976Z,50.60
2022-09-13T09:56:00.383Z,49.42
2022-09-13T09:56:56.061Z,49.89
2022-09-13T09:57:51.722Z,50.15
2022-09-13T09:58:47.249Z,50.39
2022-09-13T09:59:42.641Z,50.85
2022-09-13T10:00:38.013Z,51.91
2022-09-13T10:01:33.750Z,53.03
2022-09-13T10:02:29.338Z,52.47
2022-09-13T10:03:24.737Z,52.29
2022-09-13T10:04:20.408Z,51.44
2022-09-13T10:05:15.941Z,51.10
2022-09-13T10:06:11.489Z,50.59
2022-09-13T10:07:07.682Z,50.46
2022-09-13T10:08:03.211Z,50.70
2022-09-13T10:08:59.000Z,51.27
2022-09-13T10:09:54.507Z,51.23
2022-09-13T10:10:49.937Z,51.64
2022-09-13T10:11:45.850Z,51.64
2022-09-13T10:12:41.239Z,51.77
2022-09-13T10:13:37.050Z,52.62
2022-09-13T10:14:32.591Z,52.58
2022-09-13T10:15:28.108Z,52.01
2022-09-13T10:16:23.958Z,51.62
2022-09-13T10:17:19.206Z,51.90
2022-09-13T10:18:39.919Z,52.32
2022-09-13T10:19:12.218Z,53.21
2022-09-13T10:20:06.798Z,52.97
2022-09-13T10:21:02.599Z,52.51
2022-09-13T10:21:57.969Z,53.09
2022-09-13T10:22:53.479Z,52.92
2022-09-13T10:23:49.137Z,53.58
2022-09-13T10:24:45.106Z,53.61
2022-09-13T10:25:42.835Z,53.18
2022-09-13T10:26:37.476Z,52.90
2022-09-13T10:27:34.618Z,52.63
2022-09-13T10:28:30.137Z,52.73
2022-09-13T10:29:25.765Z,53.23
2022-09-13T10:30:21.016Z,53.65
2022-09-13T10:31:17.543Z,53.81
2022-09-13T10:32:11.235Z,54.11
2022-09-13T10:33:06.212Z,53.88
2022-09-13T10:34:01.327Z,53.52
2022-09-13T10:34:56.406Z,52.54
2022-09-13T10:35:51.524Z,52.70
2022-09-13T10:36:52.557Z,52.94
2022-09-13T10:37:42.665Z,52.88
2022-09-13T10:38:36.671Z,53.15
2022-09-13T10:39:31.822Z,52.63
2022-09-13T10:40:26.893Z,52.80
2022-09-13T10:41:21.875Z,52.89
2022-09-13T10:42:16.926Z,53.08
2022-09-13T10:43:11.906Z,52.70
2022-09-13T10:44:09.753Z,52.21
2022-09-13T10:45:02.057Z,51.46
2022-09-13T10:45:57.097Z,51.40
2022-09-13T10:46:52.115Z,51.40
2022-09-13T10:47:47.089Z,51.09
2022-09-13T10:48:42.211Z,51.42
2022-09-13T10:49:37.605Z,52.14
2022-09-13T10:50:33.115Z,51.33
2022-09-13T10:51:28.553Z,51.15
2022-09-13T10:52:23.825Z,51.34
2022-09-13T10:53:19.213Z,51.80
2022-09-13T10:54:14.656Z,52.21
2022-09-13T10:55:10.203Z,51.57
2022-09-13T10:56:05.591Z,50.34
2022-09-13T10:57:01.122Z,50.20
2022-09-13T10:57:56.643Z,48.84
2022-09-13T10:58:52.032Z,48.64
2022-09-13T10:59:51.629Z,48.43
2022-09-13T11:00:47.100Z,48.53
2022-09-13T11:01:42.561Z,49.29
2022-09-13T11:02:38.094Z,50.51
2022-09-13T11:03:33.501Z,50.72
2022-09-13T11:04:28.677Z,50.41
2022-09-13T11:05:23.652Z,50.24
2022-09-13T11:06:18.762Z,49.79
2022-09-13T11:07:13.885Z,49.12
2022-09-13T11:08:08.902Z,48.57
2022-09-13T11:09:04.015Z,48.28
2022-09-13T11:09:59.280Z,47.95
2022-09-13T11:10:54.155Z,47.53
2022-09-13T11:11:49.272Z,46.12
2022-09-13T11:12:44.274Z,46.20
2022-09-13T11:13:41.838Z,46.39
2022-09-13T11:14:35.475Z,46.05
2022-09-13T11:15:29.560Z,44.85
2022-09-13T11:16:24.676Z,44.31
2022-09-13T11:17:19.758Z,44.27
2022-09-13T11:18:14.750Z,43.78
2022-09-13T11:19:10.012Z,44.17
2022-09-13T11:20:05.459Z,44.71
2022-09-13T11:21:01.116Z,45.05
2022-09-13T11:21:56.630Z,45.05
2022-09-13T11:22:52.439Z,44.60
2022-09-13T11:23:48.003Z,44.01
2022-09-13T11:24:43.520Z,43.43
2022-09-13T11:25:39.094Z,43.24
2022-09-13T11:26:38.294Z,41.00
2022-09-13T11:27:30.063Z,40.03
2022-09-13T11:28:25.604Z,39.15
2022-09-13T11:29:21.099Z,38.87
2022-09-13T11:30:16.685Z,38.69
2022-09-13T11:31:11.883Z,39.41
2022-09-13T11:32:06.950Z,40.06
2022-09-13T11:33:01.970Z,40.81
2022-09-13T11:33:57.027Z,40.81
2022-09-13T11:34:52.090Z,40.81
2022-09-13T11:35:47.268Z,40.26
2022-09-13T11:36:42.348Z,40.30
2022-09-13T11:37:37.382Z,41.14
2022-09-13T11:38:34.737Z,41.73
2022-09-13T11:39:30.203Z,41.05
2022-09-13T11:40:25.788Z,41.13
2022-09-13T11:41:21.137Z,40.64
2022-09-13T11:42:16.700Z,39.93
2022-09-13T11:43:12.133Z,39.97
2022-09-13T11:44:07.635Z,39.69
2022-09-13T11:45:03.106Z,39.22
2022-09-13T11:45:58.560Z,39.48
2022-09-13T11:46:53.888Z,40.11
2022-09-13T11:47:49.339Z,40.21
2022-09-13T11:48:44.828Z,40.06
2022-09-13T11:49:40.396Z,39.79
2022-09-13T11:50:35.722Z,39.44
2022-09-13T11:51:31.164Z,39.47
2022-09-13T11:52:26.199Z,39.32
2022-09-13T11:53:21.234Z,39.52
2022-09-13T11:54:16.464Z,39.82